Time;durP1;ratioP1;P1;durP2;ratioP2;P2;SDS_P1;SDS_P2;PMS_P1;PMS_P2;Temp;Humidity;BMP_temperature;BMP_pressure;BME280_temperature;BME280_humidity;BME280_pressure;Samples;Min_cycle;Max_cycle;Signal;HPM_P1;HPM_P2
2021/09/02 00:00:18;;;;;;;19.77;8.00;;;17.20;99.90;;;;;;5054563;28;20521;-81
2021/09/02 00:02:44;;;;;;;;;;;17.10;99.90;;;;;;5053524;28;20060;-81
2021/09/02 00:05:09;;;;;;;17.75;7.40;;;17.20;99.90;;;;;;5053885;28;19946;-81
2021/09/02 00:07:35;;;;;;;;;;;17.20;99.90;;;;;;5054666;28;20021;-81
2021/09/02 00:10:01;;;;;;;20.30;8.10;;;17.10;99.90;;;;;;5054239;28;20343;-80
2021/09/02 00:12:27;;;;;;;;;;;17.10;99.90;;;;;;5054697;28;20024;-81
2021/09/02 00:14:52;;;;;;;16.83;7.90;;;17.10;99.90;;;;;;5054186;28;19904;-80
2021/09/02 00:17:18;;;;;;;;;;;17.00;99.90;;;;;;5054579;28;20031;-81
2021/09/02 00:19:44;;;;;;;19.02;8.43;;;16.90;99.90;;;;;;5054119;28;19948;-81
2021/09/02 00:22:09;;;;;;;;;;;16.80;99.90;;;;;;5054443;28;20021;-81
2021/09/02 00:24:35;;;;;;;19.27;8.52;;;16.80;99.90;;;;;;5052849;28;19954;-80
2021/09/02 00:27:01;;;;;;;;;;;16.70;99.90;;;;;;5054448;28;20037;-81
2021/09/02 00:29:27;;;;;;;18.17;7.57;;;16.70;99.90;;;;;;5052630;28;19905;-80
2021/09/02 00:31:53;;;;;;;;;;;16.60;99.90;;;;;;5054302;28;20059;-81
2021/09/02 00:34:19;;;;;;;18.65;8.10;;;16.60;99.90;;;;;;5053811;28;20011;-81
2021/09/02 00:36:44;;;;;;;;;;;16.60;99.90;;;;;;5054205;28;20095;-80
2021/09/02 00:39:11;;;;;;;17.35;7.63;;;16.70;99.90;;;;;;5053716;28;19958;-81
2021/09/02 00:41:36;;;;;;;21.35;7.95;;;16.80;99.90;;;;;;5053623;28;20444;-80
2021/09/02 00:44:02;;;;;;;;;;;16.80;99.90;;;;;;5052800;28;20021;-80
2021/09/02 00:46:28;;;;;;;19.95;8.50;;;16.80;99.90;;;;;;5053233;28;19909;-81
2021/09/02 00:48:54;;;;;;;;;;;16.90;99.90;;;;;;5053736;28;20155;-81
2021/09/02 00:51:20;;;;;;;18.27;7.30;;;16.80;99.90;;;;;;5053525;28;19954;-81
2021/09/02 00:53:49;;;;;;;18.63;7.90;;;16.70;99.90;;;;;;5053697;28;20559;-80
2021/09/02 00:56:15;;;;;;;19.15;8.23;;;16.80;99.90;;;;;;5053442;28;20100;-81
2021/09/02 00:58:42;;;;;;;22.42;8.85;;;16.80;99.90;;;;;;5053438;28;20504;-81
2021/09/02 01:01:08;;;;;;;18.50;8.48;;;16.70;99.90;;;;;;5053365;28;20029;-80
2021/09/02 01:03:34;;;;;;;;;;;16.80;99.90;;;;;;5053429;28;20041;-81
2021/09/02 01:06:00;;;;;;;18.13;7.97;;;16.80;99.90;;;;;;5053204;28;19995;-81
2021/09/02 01:08:29;;;;;;;27.27;10.63;;;16.60;99.90;;;;;;5052320;28;20072;-81
2021/09/02 01:10:55;;;;;;;26.50;10.27;;;16.70;99.90;;;;;;5053366;28;20020;-81
2021/09/02 01:13:21;;;;;;;;;;;16.50;99.90;;;;;;5053644;28;20401;-80
2021/09/02 01:15:47;;;;;;;17.63;8.57;;;16.60;99.90;;;;;;5051936;28;20020;-81
2021/09/02 01:18:13;;;;;;;;;;;16.80;99.90;;;;;;5053593;28;20075;-80
2021/09/02 01:20:39;;;;;;;19.05;9.15;;;16.80;99.90;;;;;;5053133;28;19909;-80
2021/09/02 01:23:06;;;;;;;25.23;10.55;;;16.60;99.90;;;;;;5053069;28;20104;-80
2021/09/02 01:25:41;;;;;;;25.35;10.25;;;16.60;99.90;;;;;;5052821;28;20025;-82
2021/09/02 01:28:09;;;;;;;17.83;8.23;;;16.50;99.90;;;;;;5053259;28;20036;-81
2021/09/02 01:30:36;;;;;;;19.23;8.73;;;16.40;99.90;;;;;;5053068;28;20477;-81
2021/09/02 01:33:03;;;;;;;17.70;8.23;;;16.40;99.90;;;;;;5052979;28;20025;-81
2021/09/02 01:35:32;;;;;;;17.75;9.57;;;16.50;99.90;;;;;;5053134;28;20024;-82
2021/09/02 01:38:03;;;;;;;19.73;9.77;;;16.40;99.90;;;;;;5052968;28;20040;-80
2021/09/02 01:40:33;;;;;;;24.13;9.85;;;16.30;99.90;;;;;;5053150;28;20032;-81
2021/09/02 01:43:00;;;;;;;19.75;9.20;;;16.20;99.90;;;;;;5052922;28;20032;-80
2021/09/02 01:45:26;;;;;;;23.58;10.18;;;16.30;99.90;;;;;;5052861;28;20075;-80
2021/09/02 01:47:54;;;;;;;;;;;16.30;99.90;;;;;;5053330;28;20076;-81
2021/09/02 01:50:22;;;;;;;18.40;9.77;;;16.50;99.90;;;;;;5051572;28;19908;-81
2021/09/02 01:52:49;;;;;;;18.75;8.82;;;16.50;99.90;;;;;;5052886;28;20015;-81
2021/09/02 01:55:16;;;;;;;22.58;10.30;;;16.50;99.90;;;;;;5052813;28;20021;-80
2021/09/02 01:57:42;;;;;;;24.83;10.65;;;16.40;99.90;;;;;;5051534;28;20024;-80
2021/09/02 02:00:13;;;;;;;17.73;9.27;;;16.20;99.90;;;;;;5056723;28;20223;-81
2021/09/02 02:02:40;;;;;;;20.83;10.07;;;16.20;99.90;;;;;;5055442;28;20025;-80
2021/09/02 02:05:07;;;;;;;22.52;10.45;;;16.00;99.90;;;;;;5056207;28;20053;-81
2021/09/02 02:07:34;;;;;;;17.15;8.88;;;16.00;99.90;;;;;;5056609;28;20029;-81
2021/09/02 02:09:59;;;;;;;20.75;10.27;;;15.90;99.90;;;;;;5055250;28;20025;-81
2021/09/02 02:12:25;;;;;;;;;;;16.10;99.90;;;;;;5056911;28;20380;-81
2021/09/02 02:14:51;;;;;;;17.30;9.45;;;16.10;99.90;;;;;;5056741;28;19908;-81
2021/09/02 02:17:16;;;;;;;;;;;16.20;99.90;;;;;;5057041;28;20036;-81
2021/09/02 02:19:42;;;;;;;22.15;10.43;;;16.10;99.90;;;;;;5056433;28;19913;-81
2021/09/02 02:22:08;;;;;;;;;;;16.00;99.90;;;;;;5056725;28;20025;-81
2021/09/02 02:24:33;;;;;;;19.15;9.30;;;15.90;99.90;;;;;;5056258;28;19905;-81
2021/09/02 02:26:59;;;;;;;;;;;16.00;99.90;;;;;;5056853;28;20021;-81
2021/09/02 02:29:25;;;;;;;18.75;8.55;;;16.00;99.90;;;;;;5056170;28;19904;-80
2021/09/02 02:31:51;;;;;;;18.65;9.70;;;16.10;99.90;;;;;;5054853;28;20035;-80
2021/09/02 02:34:17;;;;;;;19.98;10.07;;;16.20;99.90;;;;;;5056081;28;20389;-80
2021/09/02 02:36:43;;;;;;;18.10;9.90;;;15.90;99.90;;;;;;5054750;28;20394;-81
2021/09/02 02:39:09;;;;;;;;;;;15.80;99.90;;;;;;5055120;28;20093;-80
2021/09/02 02:41:35;;;;;;;23.08;10.40;;;15.70;99.90;;;;;;5054708;28;19905;-80
2021/09/02 02:44:01;;;;;;;;;;;15.60;99.90;;;;;;5056337;28;20029;-80
2021/09/02 02:46:27;;;;;;;19.45;9.18;;;15.50;99.90;;;;;;5056061;28;19999;-81
2021/09/02 02:48:53;;;;;;;23.38;10.75;;;15.50;99.90;;;;;;5055977;28;20095;-80
2021/09/02 02:51:18;;;;;;;;;;;15.70;99.90;;;;;;5056340;28;20048;-80
2021/09/02 02:53:44;;;;;;;16.40;9.55;;;15.60;99.90;;;;;;5054452;28;19905;-81
2021/09/02 02:56:09;;;;;;;;;;;15.50;99.90;;;;;;5056360;28;20048;-81
2021/09/02 02:58:35;;;;;;;19.48;11.40;;;15.50;99.90;;;;;;5055866;28;20392;-81
2021/09/02 03:01:01;;;;;;;;;;;15.50;99.90;;;;;;5054721;28;20051;-80
2021/09/02 03:03:27;;;;;;;19.38;10.70;;;15.40;99.90;;;;;;5055582;28;20365;-80
2021/09/02 03:05:53;;;;;;;19.25;11.02;;;15.40;99.90;;;;;;5055524;28;20430;-80
2021/09/02 03:08:18;;;;;;;;;;;15.50;99.90;;;;;;5055870;28;20017;-80
2021/09/02 03:10:44;;;;;;;;;;;15.70;99.90;;;;;;5055155;28;19905;-81
2021/09/02 03:13:09;;;;;;;;;;;15.70;99.90;;;;;;5054494;28;20384;-80
2021/09/02 03:15:35;;;;;;;21.33;11.88;;;15.70;99.90;;;;;;5055280;28;20272;-80
2021/09/02 03:18:01;;;;;;;20.98;12.77;;;15.50;99.90;;;;;;5055381;28;20059;-81
2021/09/02 03:20:27;;;;;;;;;;;15.60;99.90;;;;;;5055571;28;20496;-81
2021/09/02 03:22:52;;;;;;;20.67;12.38;;;15.30;99.90;;;;;;5055114;28;19905;-81
2021/09/02 03:25:18;;;;;;;18.75;12.25;;;15.20;99.90;;;;;;5054996;28;20028;-81
2021/09/02 03:27:44;;;;;;;22.05;13.18;;;15.10;99.90;;;;;;5055410;28;20138;-81
2021/09/02 03:30:10;;;;;;;;;;;14.90;99.90;;;;;;5055483;28;20378;-81
2021/09/02 03:32:37;;;;;;;19.83;12.13;;;14.90;99.90;;;;;;5055029;28;19955;-80
2021/09/02 03:35:04;;;;;;;22.60;14.50;;;15.00;99.90;;;;;;5054959;28;20017;-81
2021/09/02 03:37:30;;;;;;;26.60;15.07;;;14.90;99.90;;;;;;5054965;28;20029;-80
2021/09/02 03:39:56;;;;;;;;;;;15.00;99.90;;;;;;5055245;28;20020;-81
2021/09/02 03:42:21;;;;;;;23.85;14.35;;;14.90;99.90;;;;;;5054839;28;19927;-80
2021/09/02 03:44:47;;;;;;;24.95;14.35;;;14.90;99.90;;;;;;5054667;28;20051;-81
2021/09/02 03:47:13;;;;;;;26.25;15.93;;;14.90;99.90;;;;;;5055067;28;20025;-80
2021/09/02 03:49:38;;;;;;;;;;;15.00;99.90;;;;;;5055216;28;20051;-81
2021/09/02 03:52:05;;;;;;;23.92;13.75;;;14.80;99.90;;;;;;5053383;28;19958;-81
2021/09/02 03:54:30;;;;;;;22.98;13.65;;;14.90;99.90;;;;;;5053321;28;20116;-81
2021/09/02 03:56:56;;;;;;;;;;;15.00;99.90;;;;;;5054984;28;20100;-80
2021/09/02 03:59:22;;;;;;;22.02;13.75;;;15.00;99.90;;;;;;5054675;28;19904;-80
2021/09/02 04:01:47;;;;;;;28.27;15.95;;;15.20;99.90;;;;;;5054442;28;20017;-80
2021/09/02 04:04:13;;;;;;;26.20;15.63;;;15.10;99.90;;;;;;5054310;28;20049;-81
2021/09/02 04:06:39;;;;;;;;;;;15.00;99.90;;;;;;5054662;28;20370;-80
2021/09/02 04:09:04;;;;;;;;;;;14.80;99.90;;;;;;5054735;28;19904;-81
2021/09/02 04:11:30;;;;;;;;;;;14.80;99.90;;;;;;5054845;28;19905;-81
2021/09/02 04:13:55;;;;;;;;;;;14.70;99.90;;;;;;5054695;28;19954;-80
2021/09/02 04:16:22;;;;;;;24.92;15.32;;;14.90;99.90;;;;;;5052913;28;19909;-80
2021/09/02 04:18:48;;;;;;;30.13;16.30;;;14.90;99.90;;;;;;5054560;28;20056;-80
2021/09/02 04:21:14;;;;;;;;;;;14.70;99.90;;;;;;5052786;28;20060;-80
2021/09/02 04:23:40;;;;;;;24.20;13.32;;;14.80;99.90;;;;;;5053527;28;19908;-80
2021/09/02 04:26:06;;;;;;;;;;;15.00;99.90;;;;;;5054327;28;20112;-81
2021/09/02 04:28:31;;;;;;;24.95;14.02;;;15.00;99.90;;;;;;5053968;28;19978;-80
2021/09/02 04:30:58;;;;;;;23.52;13.57;;;15.20;99.90;;;;;;5053948;28;20386;-81
2021/09/02 04:33:23;;;;;;;;;;;15.10;99.90;;;;;;5054560;28;20122;-80
2021/09/02 04:35:49;;;;;;;26.70;15.95;;;15.10;99.90;;;;;;5054001;28;19927;-80
2021/09/02 04:38:22;;;;;;;28.38;15.80;;;14.90;99.90;;;;;;5053805;28;20025;-80
2021/09/02 04:40:49;;;;;;;24.98;15.57;;;14.70;99.90;;;;;;5053711;28;20107;-80
2021/09/02 04:43:15;;;;;;;25.83;14.93;;;14.60;99.90;;;;;;5053854;28;20078;-80
2021/09/02 04:45:42;;;;;;;23.00;14.27;;;14.50;99.90;;;;;;5053593;28;20029;-80
2021/09/02 04:48:15;;;;;;;25.58;14.65;;;14.60;99.90;;;;;;5053574;28;20040;-81
2021/09/02 04:50:46;;;;;;;23.17;14.93;;;14.70;99.90;;;;;;5053525;28;20096;-80
2021/09/02 04:53:12;;;;;;;23.98;14.40;;;14.80;99.90;;;;;;5052275;28;20013;-80
2021/09/02 04:55:38;;;;;;;;;;;14.90;99.90;;;;;;5054059;28;20029;-81
2021/09/02 04:58:05;;;;;;;21.00;13.52;;;14.80;99.90;;;;;;5053535;28;19905;-81
2021/09/02 05:00:32;;;;;;;24.52;15.75;;;14.70;99.90;;;;;;5053398;28;20525;-80
2021/09/02 05:02:58;;;;;;;24.65;13.98;;;14.80;99.90;;;;;;5053205;28;20040;-81
2021/09/02 05:05:24;;;;;;;;;;;14.60;99.90;;;;;;5052107;28;20025;-81
2021/09/02 05:07:49;;;;;;;21.40;13.07;;;14.50;99.90;;;;;;5053471;28;19957;-81
2021/09/02 05:10:15;;;;;;;22.02;13.80;;;14.50;99.90;;;;;;5053333;28;20028;-80
2021/09/02 05:12:41;;;;;;;;;;;14.70;99.90;;;;;;5053682;28;20398;-79
2021/09/02 05:15:07;;;;;;;20.95;13.35;;;14.80;99.90;;;;;;5051978;28;19905;-81
2021/09/02 05:17:32;;;;;;;;;;;15.00;99.90;;;;;;5053676;28;20385;-81
2021/09/02 05:19:58;;;;;;;21.42;14.02;;;14.70;99.90;;;;;;5053003;28;19904;-81
2021/09/02 05:22:24;;;;;;;23.85;15.15;;;14.80;99.90;;;;;;5053200;28;20559;-80
2021/09/02 05:24:50;;;;;;;25.73;15.45;;;14.70;99.90;;;;;;5053268;28;20060;-81
2021/09/02 05:27:16;;;;;;;;;;;14.30;99.90;;;;;;5053628;28;20021;-80
2021/09/02 05:29:41;;;;;;;20.08;12.90;;;14.30;99.90;;;;;;5053070;28;19928;-80
2021/09/02 05:32:08;;;;;;;23.98;13.65;;;14.40;99.90;;;;;;5053072;28;20032;-81
2021/09/02 05:34:34;;;;;;;21.02;14.25;;;14.60;99.90;;;;;;5056289;28;20025;-81
2021/09/02 05:37:00;;;;;;;;;;;14.80;99.90;;;;;;5057662;28;20029;-81
2021/09/02 05:39:25;;;;;;;25.38;13.70;;;14.90;99.90;;;;;;5057087;28;20254;-80
2021/09/02 05:41:52;;;;;;;25.10;14.55;;;14.70;99.90;;;;;;5057081;28;20025;-80
2021/09/02 05:44:17;;;;;;;;;;;14.60;99.90;;;;;;5057453;28;20025;-80
2021/09/02 05:46:43;;;;;;;25.98;15.18;;;14.60;99.90;;;;;;5056906;28;19916;-81
2021/09/02 05:49:10;;;;;;;;;;;14.40;99.90;;;;;;5057468;28;20481;-81
2021/09/02 05:51:35;;;;;;;26.98;13.98;;;14.20;99.90;;;;;;5055614;28;19952;-80
2021/09/02 05:54:01;;;;;;;;;;;14.20;99.90;;;;;;5057514;28;20060;-81
2021/09/02 05:56:27;;;;;;;24.13;13.77;;;14.40;99.90;;;;;;5057161;28;19912;-81
2021/09/02 05:58:52;;;;;;;20.70;12.98;;;14.30;99.90;;;;;;5057012;28;20024;-81
2021/09/02 06:01:18;;;;;;;24.77;14.38;;;14.40;99.90;;;;;;5056763;28;20033;-81
2021/09/02 06:03:44;;;;;;;27.23;14.88;;;14.40;99.90;;;;;;5056487;28;20124;-80
2021/09/02 06:06:10;;;;;;;20.45;13.30;;;14.60;99.90;;;;;;5057049;28;20033;-81
2021/09/02 06:08:36;;;;;;;25.65;14.00;;;14.70;99.90;;;;;;5056630;28;20529;-81
2021/09/02 06:11:04;;;;;;;26.00;14.60;;;14.80;99.90;;;;;;5056551;28;20056;-80
2021/09/02 06:13:30;;;;;;;23.02;12.23;;;15.00;99.90;;;;;;5056513;28;20031;-81
2021/09/02 06:15:56;;;;;;;25.20;13.02;;;15.00;99.90;;;;;;5056693;28;20029;-81
2021/09/02 06:18:22;;;;;;;;;;;15.50;99.90;;;;;;5056996;28;20021;-80
2021/09/02 06:20:48;;;;;;;22.77;12.85;;;15.70;99.90;;;;;;5056386;28;19911;-81
2021/09/02 06:23:13;;;;;;;;;;;15.90;99.90;;;;;;5056765;28;20040;-80
2021/09/02 06:25:39;;;;;;;21.83;13.32;;;16.20;99.90;;;;;;5056146;28;19948;-82
2021/09/02 06:28:06;;;;;;;23.15;11.95;;;16.60;99.90;;;;;;5056559;28;20104;-81
2021/09/02 06:30:32;;;;;;;17.10;11.25;;;16.90;99.90;;;;;;5056151;28;20059;-81
2021/09/02 06:32:57;;;;;;;19.27;11.43;;;17.00;99.90;;;;;;5056104;28;20047;-80
2021/09/02 06:35:23;;;;;;;18.95;11.57;;;17.60;99.90;;;;;;5054796;28;20025;-82
2021/09/02 06:37:49;;;;;;;18.25;11.52;;;18.20;99.90;;;;;;5056018;28;20059;-82
2021/09/02 06:40:15;;;;;;;18.65;11.30;;;18.20;99.90;;;;;;5056142;28;20122;-81
2021/09/02 06:42:41;;;;;;;18.85;10.88;;;18.70;99.90;;;;;;5056022;28;20032;-81
2021/09/02 06:45:08;;;;;;;19.58;10.55;;;18.90;99.90;;;;;;5054691;28;20033;-81
2021/09/02 06:47:33;;;;;;;18.50;11.18;;;19.40;99.90;;;;;;5055779;28;20032;-81
2021/09/02 06:50:00;;;;;;;19.33;10.98;;;19.20;99.90;;;;;;5055832;28;20021;-81
2021/09/02 06:52:26;;;;;;;18.90;10.63;;;19.40;99.90;;;;;;5054466;28;20033;-81
2021/09/02 06:54:51;;;;;;;21.48;11.88;;;19.80;99.90;;;;;;5054453;28;20092;-82
2021/09/02 06:57:18;;;;;;;18.25;10.95;;;20.20;99.90;;;;;;5055685;28;20482;-82
2021/09/02 06:59:43;;;;;;;17.00;10.43;;;20.20;99.90;;;;;;5055659;28;20024;-82
2021/09/02 07:02:09;;;;;;;19.92;11.98;;;20.20;99.90;;;;;;5055551;28;20112;-82
2021/09/02 07:04:35;;;;;;;19.73;11.20;;;20.10;99.90;;;;;;5055375;28;20041;-81
2021/09/02 07:07:01;;;;;;;19.75;11.10;;;20.50;99.90;;;;;;5055664;28;20037;-81
2021/09/02 07:09:26;;;;;;;17.83;10.13;;;20.90;99.90;;;;;;5055625;28;20100;-81
2021/09/02 07:11:52;;;;;;;16.92;10.00;;;21.50;99.90;;;;;;5055584;28;20371;-81
2021/09/02 07:14:18;;;;;;;19.35;10.48;;;21.80;99.20;;;;;;5055340;28;20032;-81
2021/09/02 07:16:44;;;;;;;17.48;10.52;;;21.80;99.20;;;;;;5055309;28;20025;-81
2021/09/02 07:19:10;;;;;;;17.30;10.70;;;21.80;98.70;;;;;;5054010;28;20112;-81
2021/09/02 07:21:36;;;;;;;19.67;10.68;;;21.80;98.60;;;;;;5055423;28;20025;-82
2021/09/02 07:24:02;;;;;;;18.73;11.73;;;22.70;97.60;;;;;;5055087;28;20074;-81
2021/09/02 07:26:28;;;;;;;17.65;11.07;;;22.40;96.80;;;;;;5055088;28;20086;-81
2021/09/02 07:28:53;;;;;;;19.50;11.20;;;21.80;98.30;;;;;;5053791;28;20053;-81
2021/09/02 07:31:19;;;;;;;18.13;10.60;;;22.20;97.60;;;;;;5053982;28;20063;-80
2021/09/02 07:33:45;;;;;;;16.20;10.20;;;22.60;96.80;;;;;;5055027;28;20025;-79
2021/09/02 07:36:11;;;;;;;16.52;11.27;;;23.10;96.60;;;;;;5054991;28;20381;-79
2021/09/02 07:38:37;;;;;;;16.83;10.63;;;23.30;95.60;;;;;;5054963;28;20032;-79
2021/09/02 07:41:03;;;;;;;20.92;10.52;;;23.20;95.70;;;;;;5054799;28;20028;-80
2021/09/02 07:43:29;;;;;;;19.17;11.65;;;23.30;95.70;;;;;;5053532;28;20025;-79
2021/09/02 07:45:54;;;;;;;18.13;11.10;;;23.70;94.50;;;;;;5054714;28;20033;-79
2021/09/02 07:48:20;;;;;;;16.48;10.23;;;23.50;94.90;;;;;;5054762;28;20013;-78
2021/09/02 07:50:46;;;;;;;23.52;11.38;;;24.30;93.90;;;;;;5054686;28;20025;-79
2021/09/02 07:53:12;;;;;;;16.05;9.68;;;25.10;92.10;;;;;;5053359;28;20017;-79
2021/09/02 07:55:37;;;;;;;17.65;10.00;;;25.80;90.90;;;;;;5055060;28;20029;-79
2021/09/02 07:58:03;;;;;;;18.83;10.20;;;25.80;90.30;;;;;;5054497;28;20021;-79
2021/09/02 08:00:29;;;;;;;15.30;9.27;;;25.90;90.40;;;;;;5054506;28;20052;-80
2021/09/02 08:02:55;;;;;;;17.75;9.75;;;26.20;89.40;;;;;;5054269;28;20017;-79
2021/09/02 08:05:21;;;;;;;16.45;9.85;;;26.90;87.30;;;;;;5054634;28;20103;-80
2021/09/02 08:07:50;;;;;;;15.55;9.73;;;27.20;83.90;;;;;;5053013;28;20033;-80
2021/09/02 08:10:18;;;;;;;18.08;9.60;;;27.00;84.20;;;;;;5052939;28;20032;-80
2021/09/02 08:12:44;;;;;;;14.25;8.75;;;27.30;82.40;;;;;;5054215;28;20087;-79
2021/09/02 08:15:10;;;;;;;17.27;9.88;;;27.50;81.70;;;;;;5054393;28;20032;-80
2021/09/02 08:17:36;;;;;;;17.73;9.75;;;28.00;79.30;;;;;;5054136;28;20044;-79
2021/09/02 08:20:04;;;;;;;15.60;9.68;;;27.90;79.10;;;;;;5054091;28;20025;-80
2021/09/02 08:22:30;;;;;;;15.13;9.20;;;27.50;79.60;;;;;;5053992;28;20021;-79
2021/09/02 08:24:56;;;;;;;17.30;9.35;;;27.60;79.10;;;;;;5054179;28;20050;-80
2021/09/02 08:27:21;;;;;;;15.05;9.40;;;28.40;77.40;;;;;;5053905;28;20029;-80
2021/09/02 08:29:48;;;;;;;15.25;8.93;;;28.70;75.30;;;;;;5054006;28;20021;-80
2021/09/02 08:32:13;;;;;;;15.98;9.98;;;29.00;74.90;;;;;;5053778;28;20056;-80
2021/09/02 08:34:40;;;;;;;17.52;9.40;;;29.10;73.10;;;;;;5053890;28;20048;-80
2021/09/02 08:37:05;;;;;;;17.30;9.32;;;29.40;72.10;;;;;;5053790;28;20024;-80
2021/09/02 08:39:31;;;;;;;16.08;9.38;;;30.50;69.20;;;;;;5053970;28;20040;-81
2021/09/02 08:41:57;;;;;;;15.88;9.52;;;30.70;67.20;;;;;;5053745;28;20040;-81
2021/09/02 08:44:24;;;;;;;13.85;8.13;;;30.70;66.00;;;;;;5052420;28;20020;-80
2021/09/02 08:46:50;;;;;;;16.85;8.98;;;30.60;66.90;;;;;;5053559;28;20020;-80
2021/09/02 08:49:22;;;;;;;12.90;8.15;;;31.00;65.50;;;;;;5052320;28;20115;-80
2021/09/02 08:51:49;;;;;;;14.52;8.05;;;32.20;63.40;;;;;;5053602;28;20481;-80
2021/09/02 08:54:17;;;;;;;12.85;7.90;;;32.80;60.00;;;;;;5053498;28;20417;-81
2021/09/02 08:56:43;;;;;;;16.73;8.73;;;32.70;59.20;;;;;;5052210;28;20555;-79
2021/09/02 08:59:09;;;;;;;14.63;9.13;;;32.20;58.50;;;;;;5053462;28;20053;-79
2021/09/02 09:01:35;;;;;;;16.35;9.50;;;32.20;58.40;;;;;;5053449;28;20017;-80
2021/09/02 09:04:11;;;;;;;20.75;9.55;;;32.10;58.80;;;;;;5052031;28;20497;-81
2021/09/02 09:06:38;;;;;;;12.80;7.63;;;31.70;58.90;;;;;;5053414;28;20054;-80
2021/09/02 09:09:17;;;;;;;15.40;8.82;;;32.50;58.40;;;;;;5052728;28;20025;-80
2021/09/02 09:11:47;;;;;;;14.18;8.25;;;32.20;57.20;;;;;;5053460;28;20025;-80
2021/09/02 09:14:17;;;;;;;13.73;8.52;;;32.30;58.10;;;;;;5051711;28;20028;-79
2021/09/02 09:16:44;;;;;;;13.50;8.48;;;33.50;56.20;;;;;;5053235;28;20017;-80
2021/09/02 09:19:10;;;;;;;37.65;10.65;;;35.20;53.20;;;;;;5053167;28;20035;-80
2021/09/02 09:21:36;;;;;;;13.18;8.00;;;35.20;52.60;;;;;;5053103;28;20025;-80
2021/09/02 09:24:06;;;;;;;13.05;7.60;;;35.90;51.20;;;;;;5051786;28;20029;-80
2021/09/02 09:26:34;;;;;;;13.25;8.13;;;36.60;49.50;;;;;;5053230;28;20025;-80
2021/09/02 09:29:03;;;;;;;13.80;8.68;;;36.70;48.70;;;;;;5051841;28;20059;-81
2021/09/02 09:31:34;;;;;;;14.85;8.10;;;36.60;48.20;;;;;;5051848;28;20074;-81
2021/09/02 09:34:03;;;;;;;14.82;7.78;;;36.10;48.60;;;;;;5053380;28;20021;-81
2021/09/02 09:36:30;;;;;;;11.75;8.05;;;37.60;48.00;;;;;;5053008;28;20021;-81
2021/09/02 09:38:57;;;;;;;12.32;8.02;;;37.10;46.60;;;;;;5053007;28;20049;-80
2021/09/02 09:41:49;;;;;;;12.55;8.05;;;37.50;46.90;;;;;;5052954;28;20021;-81
2021/09/02 09:44:24;;;;;;;13.10;8.40;;;38.90;45.40;;;;;;5050463;28;20033;-81
2021/09/02 09:47:08;;;;;;;13.30;8.23;;;38.90;44.00;;;;;;5051680;28;20052;-81
2021/09/02 09:49:48;;;;;;;15.60;7.70;;;40.50;43.70;;;;;;5051367;28;20409;-80
2021/09/02 09:52:24;;;;;;;15.35;8.32;;;41.40;42.10;;;;;;5052986;28;20053;-81
2021/09/02 09:54:51;;;;;;;12.30;7.93;;;41.10;41.90;;;;;;5053051;28;20082;-81
2021/09/02 09:57:17;;;;;;;14.82;7.93;;;40.60;41.70;;;;;;5052895;28;20100;-81
2021/09/02 09:59:44;;;;;;;14.07;9.18;;;40.50;41.60;;;;;;5052800;28;20450;-81
2021/09/02 10:02:11;;;;;;;14.50;8.90;;;41.40;40.30;;;;;;5052763;28;20050;-81
2021/09/02 10:04:38;;;;;;;13.90;8.88;;;40.40;41.00;;;;;;5052606;28;20447;-81
2021/09/02 10:07:05;;;;;;;18.20;8.00;;;39.30;41.90;;;;;;5052692;28;20397;-81
2021/09/02 10:09:33;;;;;;;16.48;8.10;;;39.50;42.30;;;;;;5053229;28;20036;-81
2021/09/02 10:12:03;;;;;;;12.75;7.75;;;39.60;42.00;;;;;;5052706;28;20067;-81
2021/09/02 10:14:30;;;;;;;14.32;8.45;;;41.40;41.00;;;;;;5051424;28;20431;-81
2021/09/02 10:16:56;;;;;;;12.77;7.97;;;41.30;40.30;;;;;;5051310;28;20029;-81
2021/09/02 10:19:24;;;;;;;11.30;7.63;;;40.80;40.60;;;;;;5053646;28;20021;-81
2021/09/02 10:21:52;;;;;;;13.00;8.25;;;41.70;40.50;;;;;;5056626;28;20083;-81
2021/09/02 10:24:36;;;;;;;15.00;8.13;;;40.10;40.00;;;;;;5056294;28;20021;-81
2021/09/02 10:27:17;;;;;;;14.60;8.88;;;40.90;40.80;;;;;;5056330;28;20029;-81
2021/09/02 10:29:44;;;;;;;13.35;8.10;;;41.60;39.80;;;;;;5056515;28;20029;-81
2021/09/02 10:32:22;;;;;;;13.20;9.00;;;43.20;39.10;;;;;;5056372;28;20393;-82
2021/09/02 10:35:09;;;;;;;17.70;9.13;;;43.70;38.10;;;;;;5056202;28;20100;-81
2021/09/02 10:37:35;;;;;;;14.68;8.50;;;42.90;38.20;;;;;;5053406;28;20503;-81
2021/09/02 10:40:05;;;;;;;13.35;7.80;;;42.20;38.80;;;;;;5054741;28;20112;-81
2021/09/02 10:42:46;;;;;;;13.73;9.43;;;43.40;38.90;;;;;;5056262;28;20013;-81
2021/09/02 10:45:28;;;;;;;13.63;8.20;;;42.90;37.60;;;;;;5054605;28;20028;-81
2021/09/02 10:47:54;;;;;;;;;;;43.50;38.30;;;;;;5055057;28;20017;-82
2021/09/02 10:50:23;;;;;;;12.73;7.90;;;43.90;37.80;;;;;;5054544;28;19905;-81
2021/09/02 10:52:50;;;;;;;11.98;8.02;;;42.80;38.80;;;;;;5055807;28;20021;-81
2021/09/02 10:55:32;;;;;;;11.20;7.72;;;42.70;38.70;;;;;;5055648;28;20105;-82
2021/09/02 10:58:01;;;;;;;11.18;7.47;;;43.00;38.60;;;;;;5054182;28;20508;-82
2021/09/02 11:00:35;;;;;;;13.85;7.90;;;42.60;38.60;;;;;;5055675;28;20019;-81
2021/09/02 11:03:13;;;;;;;12.52;8.40;;;44.10;37.90;;;;;;5055362;28;20390;-81
2021/09/02 11:05:44;;;;;;;12.82;8.15;;;46.00;36.20;;;;;;5055757;28;20021;-82
2021/09/02 11:08:10;;;;;;;13.48;8.48;;;45.00;37.10;;;;;;5055531;28;20025;-82
2021/09/02 11:10:36;;;;;;;11.60;7.80;;;44.80;36.60;;;;;;5054189;28;20485;-82
2021/09/02 11:13:07;;;;;;;11.32;7.70;;;44.60;36.80;;;;;;5055366;28;20078;-82
2021/09/02 11:15:37;;;;;;;11.60;6.55;;;42.80;36.70;;;;;;5055489;28;20090;-81
2021/09/02 11:18:05;;;;;;;12.00;6.97;;;41.50;38.30;;;;;;5055518;28;20013;-81
2021/09/02 11:20:34;;;;;;;10.75;6.45;;;42.20;37.50;;;;;;5055438;28;20025;-81
2021/09/02 11:23:13;;;;;;;21.38;6.32;;;41.90;38.20;;;;;;5053993;28;20021;-81
2021/09/02 11:25:57;;;;;;;11.68;6.28;;;41.80;37.80;;;;;;5055340;28;20028;-81
2021/09/02 11:28:23;;;;;;;15.45;6.72;;;42.00;38.40;;;;;;5055171;28;20025;-81
2021/09/02 11:30:53;;;;;;;11.73;6.15;;;41.90;38.30;;;;;;5054518;28;20565;-81
2021/09/02 11:33:20;;;;;;;10.77;6.60;;;42.60;37.70;;;;;;5053785;28;20032;-82
2021/09/02 11:35:59;;;;;;;11.95;6.35;;;42.60;37.50;;;;;;5053637;28;20119;-82
2021/09/02 11:38:25;;;;;;;11.93;6.70;;;43.10;37.90;;;;;;5053406;28;20025;-82
2021/09/02 11:40:52;;;;;;;11.18;7.07;;;45.00;36.80;;;;;;5054896;28;20067;-82
2021/09/02 11:43:18;;;;;;;12.07;7.40;;;46.20;35.30;;;;;;5054916;28;20055;-82
2021/09/02 11:45:54;;;;;;;15.38;6.60;;;46.40;35.00;;;;;;5054863;28;20025;-82
2021/09/02 11:48:21;;;;;;;11.48;7.57;;;44.90;36.30;;;;;;5054885;28;20025;-82
2021/09/02 11:50:59;;;;;;;10.30;6.60;;;45.00;35.40;;;;;;5054719;28;20033;-82
2021/09/02 11:53:30;;;;;;;14.27;6.45;;;44.30;35.80;;;;;;5053120;28;20032;-81
2021/09/02 11:56:08;;;;;;;12.73;6.78;;;45.50;35.90;;;;;;5054638;28;20063;-81
2021/09/02 11:58:33;;;;;;;13.75;6.85;;;44.30;35.20;;;;;;5054834;28;20359;-81
2021/09/02 12:01:00;;;;;;;13.07;7.20;;;45.70;35.30;;;;;;5054510;28;20032;-82
2021/09/02 12:03:26;;;;;;;11.32;7.60;;;48.60;34.40;;;;;;5054260;28;20524;-82
2021/09/02 12:05:54;;;;;;;12.70;7.72;;;48.50;34.10;;;;;;5052877;28;20025;-82
2021/09/02 12:08:20;;;;;;;12.10;7.75;;;48.50;34.30;;;;;;5054712;28;20032;-82
2021/09/02 12:10:46;;;;;;;13.40;7.05;;;49.20;34.00;;;;;;5053048;28;20048;-81
2021/09/02 12:13:26;;;;;;;13.50;7.43;;;47.50;34.10;;;;;;5054349;28;20118;-82
2021/09/02 12:16:08;;;;;;;12.27;7.70;;;47.00;34.30;;;;;;5052883;28;20568;-82
2021/09/02 12:18:35;;;;;;;;;;;46.20;34.50;;;;;;5053952;28;20017;-81
2021/09/02 12:21:13;;;;;;;10.55;7.00;;;45.70;35.30;;;;;;5054001;28;20288;-82
2021/09/02 12:23:47;;;;;;;10.10;6.50;;;45.60;35.00;;;;;;5054189;28;20367;-82
2021/09/02 12:26:13;;;;;;;12.55;6.82;;;46.20;35.40;;;;;;5054053;28;20021;-82
2021/09/02 12:28:42;;;;;;;11.80;7.07;;;46.50;34.70;;;;;;5053075;28;20443;-82
2021/09/02 12:31:14;;;;;;;11.38;6.45;;;47.30;34.40;;;;;;5052612;28;20485;-82
2021/09/02 12:34:32;;;;;;;12.15;6.40;;;47.00;34.60;;;;;;5052682;28;20394;-81
2021/09/02 12:37:07;;;;;;;11.18;7.07;;;48.80;34.10;;;;;;5035127;28;20040;-82
2021/09/02 12:39:34;;;;;;;9.77;6.82;;;48.60;34.00;;;;;;5053415;28;20040;-82
2021/09/02 12:42:02;;;;;;;11.38;7.20;;;48.80;33.70;;;;;;5053771;28;20018;-82
2021/09/02 12:44:36;;;;;;;11.18;7.00;;;49.80;33.50;;;;;;5051689;28;20047;-82
2021/09/02 12:47:19;;;;;;;12.63;6.90;;;48.50;32.80;;;;;;5052202;28;20067;-82
2021/09/02 12:49:46;;;;;;;11.25;6.28;;;47.50;33.90;;;;;;5053840;28;20099;-82